Time;durP1;ratioP1;P1;durP2;ratioP2;P2;SDS_P1;SDS_P2;PMS_P1;PMS_P2;Temp;Humidity;BMP_temperature;BMP_pressure;BME280_temperature;BME280_humidity;BME280_pressure;Samples;Min_cycle;Max_cycle;Signal;HPM_P1;HPM_P2
2023/02/11 00:05:25;;;;;;;45.42;5.35;;;7.00;99.90;;;;;;6243797;22;40303;-80
2023/02/11 00:07:52;;;;;;;22.80;4.23;;;7.00;99.90;;;;;;6220521;22;37256;-83
2023/02/11 00:10:18;;;;;;;23.47;4.00;;;7.00;99.90;;;;;;6215222;23;36926;-80
2023/02/11 00:12:46;;;;;;;30.50;4.53;;;7.00;99.90;;;;;;6214487;23;37943;-80
2023/02/11 00:15:20;;;;;;;27.83;5.10;;;7.00;99.90;;;;;;6213452;23;38741;-81
2023/02/11 00:17:46;;;;;;;30.63;5.40;;;7.00;99.90;;;;;;6214554;23;37110;-80
2023/02/11 00:20:12;;;;;;;27.67;4.00;;;6.90;99.90;;;;;;6234949;23;38497;-82
2023/02/11 00:22:44;;;;;;;30.00;6.27;;;7.00;99.90;;;;;;6214322;23;37754;-80
2023/02/11 00:25:10;;;;;;;34.63;4.68;;;6.90;99.90;;;;;;6207503;23;37357;-80
2023/02/11 00:27:51;;;;;;;41.10;5.37;;;6.90;99.90;;;;;;6238728;23;39542;-80
2023/02/11 00:30:17;;;;;;;30.23;5.73;;;6.90;99.90;;;;;;6238005;23;37837;-82
2023/02/11 00:32:43;;;;;;;28.30;4.93;;;7.00;99.90;;;;;;6215319;23;37704;-80
2023/02/11 00:35:11;;;;;;;27.43;4.40;;;7.00;99.90;;;;;;6212467;23;38325;-80
2023/02/11 00:37:38;;;;;;;26.33;4.03;;;6.90;99.90;;;;;;6214507;23;37150;-82
2023/02/11 00:40:06;;;;;;;23.77;4.37;;;7.00;99.90;;;;;;6212890;23;36569;-79
2023/02/11 00:42:36;;;;;;;33.13;5.00;;;7.00;99.90;;;;;;6238084;23;48911;-80
2023/02/11 00:45:03;;;;;;;38.87;5.00;;;7.00;99.90;;;;;;6211494;23;38613;-81
2023/02/11 00:47:40;;;;;;;26.97;4.43;;;7.00;99.90;;;;;;6210778;23;37564;-81
2023/02/11 00:50:09;;;;;;;32.17;5.90;;;7.00;99.90;;;;;;6212771;23;37346;-80
2023/02/11 00:52:35;;;;;;;29.33;4.93;;;6.90;99.90;;;;;;6217153;23;38069;-82
2023/02/11 00:55:01;;;;;;;31.20;5.50;;;7.00;99.90;;;;;;6216946;23;38222;-83
2023/02/11 00:57:27;;;;;;;36.23;5.07;;;7.00;99.90;;;;;;6239612;23;47544;-80
2023/02/11 00:59:53;;;;;;;24.70;4.97;;;7.00;99.90;;;;;;6218483;22;36316;-81
2023/02/11 01:02:25;;;;;;;32.00;5.20;;;6.90;99.90;;;;;;6241205;22;37653;-84
2023/02/11 01:04:51;;;;;;;34.70;5.40;;;6.90;99.90;;;;;;6243693;22;37408;-84
2023/02/11 01:07:19;;;;;;;28.20;5.00;;;6.90;99.90;;;;;;6244000;22;37671;-82
2023/02/11 01:09:46;;;;;;;24.97;5.27;;;7.00;99.90;;;;;;6269559;22;39982;-83
2023/02/11 01:12:13;;;;;;;31.30;4.30;;;6.90;99.90;;;;;;6270123;22;38875;-81
2023/02/11 01:14:43;;;;;;;28.37;4.77;;;6.90;99.90;;;;;;6244644;22;38595;-82
2023/02/11 01:17:09;;;;;;;29.10;6.43;;;6.80;99.90;;;;;;6243279;22;37991;-81
2023/02/11 01:19:37;;;;;;;26.10;4.33;;;6.80;99.90;;;;;;6270870;22;37456;-82
2023/02/11 01:22:03;;;;;;;24.10;4.10;;;6.90;99.90;;;;;;6239062;22;38122;-82
2023/02/11 01:24:29;;;;;;;28.87;4.10;;;6.90;99.90;;;;;;6266302;22;39144;-83
2023/02/11 01:26:55;;;;;;;20.93;4.60;;;6.90;99.90;;;;;;6267360;22;39655;-82
2023/02/11 01:29:22;;;;;;;38.83;5.23;;;6.90;99.90;;;;;;6241865;22;35842;-83
2023/02/11 01:31:48;;;;;;;24.77;4.50;;;6.90;99.90;;;;;;6243996;22;37854;-83
2023/02/11 01:34:15;;;;;;;24.73;4.70;;;6.90;99.90;;;;;;6268456;22;39580;-82
2023/02/11 01:36:43;;;;;;;26.53;5.80;;;6.90;99.90;;;;;;6245465;22;36983;-83
2023/02/11 01:39:13;;;;;;;27.13;4.97;;;6.80;99.90;;;;;;6266433;22;37477;-83
2023/02/11 01:41:42;;;;;;;34.70;6.33;;;6.70;99.90;;;;;;6241607;22;37482;-83
2023/02/11 01:44:35;;;;;;;27.07;6.23;;;6.70;99.90;;;;;;6239287;22;37565;-83
2023/02/11 01:47:05;;;;;;;;;;;6.70;99.90;;;;;;6238611;22;37735;-82
2023/02/11 01:49:36;;;;;;;24.87;6.30;;;6.70;99.90;;;;;;6242423;22;36886;-83
2023/02/11 01:52:16;;;;;;;25.20;4.90;;;6.70;99.90;;;;;;6265231;22;39107;-82
2023/02/11 01:57:35;;;;;;;36.87;5.83;;;6.50;99.90;;;;;;6265960;22;49609;-81
2023/02/11 02:02:56;;;;;;;30.73;7.83;;;6.40;99.90;;;;;;6207568;22;21024;-77
2023/02/11 02:05:47;;;;;;;29.90;5.77;;;6.30;99.90;;;;;;6237739;22;39879;-77
2023/02/11 02:08:16;;;;;;;33.77;6.80;;;6.30;99.90;;;;;;6213069;22;36948;-78
2023/02/11 02:10:46;;;;;;;30.60;7.70;;;6.30;99.90;;;;;;6242414;22;37843;-78
2023/02/11 02:13:13;;;;;;;36.57;8.13;;;6.20;99.90;;;;;;6241544;22;38648;-78
2023/02/11 02:15:45;;;;;;;27.73;7.30;;;6.20;99.90;;;;;;6243514;22;38785;-78
2023/02/11 02:18:48;;;;;;;40.35;7.82;;;6.20;99.90;;;;;;6242165;22;38109;-78
2023/02/11 02:21:47;;;;;;;37.08;8.50;;;6.10;99.90;;;;;;6243212;22;36949;-78
2023/02/11 02:24:22;;;;;;;43.17;9.13;;;6.10;99.90;;;;;;6214606;22;37935;-77
2023/02/11 02:26:51;;;;;;;33.37;8.07;;;6.10;99.90;;;;;;6215219;22;38056;-77
2023/02/11 02:29:36;;;;;;;42.80;9.07;;;6.10;99.90;;;;;;6215818;22;37125;-77
2023/02/11 02:32:26;;;;;;;33.70;7.90;;;6.10;99.90;;;;;;6244127;22;37728;-77
2023/02/11 02:35:18;;;;;;;39.00;9.67;;;6.10;99.90;;;;;;6217363;22;37843;-78
2023/02/11 02:37:47;;;;;;;39.97;8.53;;;6.10;99.90;;;;;;6214980;22;47171;-77
2023/02/11 02:40:22;;;;;;;31.90;7.67;;;6.10;99.90;;;;;;6213124;22;37153;-78
2023/02/11 02:42:49;;;;;;;44.03;9.17;;;6.10;99.90;;;;;;6246539;22;35644;-78
2023/02/11 02:45:16;;;;;;;37.37;7.93;;;6.00;99.90;;;;;;6243013;22;38897;-79
2023/02/11 02:47:42;;;;;;;29.10;8.87;;;6.10;99.90;;;;;;6217328;22;37046;-78
2023/02/11 02:50:09;;;;;;;31.07;8.07;;;6.10;99.90;;;;;;6241829;22;38069;-78
2023/02/11 02:52:45;;;;;;;34.23;8.40;;;6.10;99.90;;;;;;6244661;22;37081;-78
2023/02/11 02:55:38;;;;;;;47.63;9.73;;;6.20;99.90;;;;;;6242507;22;40010;-78
2023/02/11 02:58:43;;;;;;;35.25;9.18;;;6.20;99.90;;;;;;6216185;22;38524;-78
2023/02/11 03:01:53;;;;;;;41.67;8.47;;;6.20;99.90;;;;;;6214237;22;37123;-78
2023/02/11 03:04:50;;;;;;;36.87;8.00;;;6.20;99.90;;;;;;6090370;23;36727;-75
2023/02/11 03:07:32;;;;;;;30.50;7.83;;;6.20;99.90;;;;;;6066363;23;40021;-77
2023/02/11 03:10:06;;;;;;;35.42;9.05;;;6.20;99.90;;;;;;6092594;23;39318;-76
2023/02/11 03:12:35;;;;;;;26.57;7.50;;;6.20;99.90;;;;;;6144020;22;46946;-77
2023/02/11 03:15:04;;;;;;;39.03;8.87;;;6.20;99.90;;;;;;6242204;22;38021;-77
2023/02/11 03:17:33;;;;;;;28.03;8.80;;;6.10;99.90;;;;;;6214535;22;47248;-77
2023/02/11 03:20:03;;;;;;;34.70;8.57;;;6.10;99.90;;;;;;6244255;22;38286;-77
2023/02/11 03:22:54;;;;;;;43.43;10.43;;;6.00;99.90;;;;;;6216249;22;47799;-77
2023/02/11 03:25:25;;;;;;;37.20;9.20;;;6.00;99.90;;;;;;6216199;22;36335;-77
2023/02/11 03:28:07;;;;;;;48.23;10.67;;;5.90;99.90;;;;;;6218416;22;37629;-78
2023/02/11 03:30:48;;;;;;;36.20;10.90;;;6.00;99.90;;;;;;6240339;22;49703;-77
2023/02/11 03:33:26;;;;;;;45.23;10.97;;;6.00;99.90;;;;;;6218740;22;37236;-78
2023/02/11 03:36:13;;;;;;;37.70;9.93;;;5.90;99.90;;;;;;6248628;22;37439;-78
2023/02/11 03:38:46;;;;;;;41.20;10.43;;;5.90;99.90;;;;;;6218328;22;47308;-77
2023/02/11 03:41:16;;;;;;;40.53;10.83;;;5.80;99.90;;;;;;6246415;22;38056;-78
2023/02/11 03:43:55;;;;;;;42.40;12.13;;;5.80;99.90;;;;;;6247775;22;38033;-77
2023/02/11 03:46:31;;;;;;;44.70;11.33;;;5.80;99.90;;;;;;6245020;22;37395;-77
2023/02/11 03:49:03;;;;;;;35.53;11.77;;;5.70;99.90;;;;;;6245497;22;40025;-77
2023/02/11 03:51:31;;;;;;;47.07;13.67;;;5.70;99.90;;;;;;6244681;22;49766;-77
2023/02/11 03:54:09;;;;;;;39.70;11.47;;;5.70;99.90;;;;;;6247238;22;37771;-78
2023/02/11 03:56:56;;;;;;;34.67;10.73;;;5.70;99.90;;;;;;6244767;22;48869;-77
2023/02/11 03:59:22;;;;;;;44.37;12.43;;;5.70;99.90;;;;;;6219358;22;38208;-77
2023/02/11 04:01:49;;;;;;;33.63;11.53;;;5.70;99.90;;;;;;6244381;22;37649;-77
2023/02/11 04:04:15;;;;;;;36.30;11.23;;;5.70;99.90;;;;;;6245128;22;37999;-78
2023/02/11 04:06:42;;;;;;;41.70;13.03;;;5.70;99.90;;;;;;6247443;22;38266;-78
2023/02/11 04:09:09;;;;;;;39.83;13.43;;;5.60;99.90;;;;;;6247331;22;40059;-78
2023/02/11 04:11:35;;;;;;;41.50;13.67;;;5.70;99.90;;;;;;6247908;22;38023;-77
2023/02/11 04:14:01;;;;;;;36.30;12.80;;;5.60;99.90;;;;;;6220694;22;36737;-78
2023/02/11 04:16:29;;;;;;;48.03;14.67;;;5.60;99.90;;;;;;6217300;22;47232;-77
2023/02/11 04:18:56;;;;;;;44.03;14.50;;;5.50;99.90;;;;;;6246257;22;39766;-77
2023/02/11 04:21:22;;;;;;;55.17;15.77;;;5.60;99.90;;;;;;6230807;22;38337;-77
2023/02/11 04:23:48;;;;;;;39.40;13.30;;;5.60;99.90;;;;;;6220430;22;36977;-77
2023/02/11 04:26:14;;;;;;;42.33;14.30;;;5.50;99.90;;;;;;6217247;22;36553;-78
2023/02/11 04:28:40;;;;;;;39.27;13.53;;;5.50;99.90;;;;;;6221164;22;38152;-78
2023/02/11 04:31:06;;;;;;;46.50;14.63;;;5.60;99.90;;;;;;6247481;22;38509;-77
2023/02/11 04:33:32;;;;;;;47.93;14.60;;;5.50;99.90;;;;;;6220027;22;36902;-77
2023/02/11 04:35:58;;;;;;;44.90;15.73;;;5.40;99.90;;;;;;6246366;22;36255;-77
2023/02/11 04:38:25;;;;;;;48.07;14.67;;;5.40;99.90;;;;;;6246948;22;39542;-80
2023/02/11 04:40:51;;;;;;;48.00;14.83;;;5.40;99.90;;;;;;6247913;22;39281;-77
2023/02/11 04:43:17;;;;;;;38.43;14.17;;;5.40;99.90;;;;;;6244108;22;37823;-77
2023/02/11 04:45:43;;;;;;;63.90;18.50;;;5.40;99.90;;;;;;6218962;22;36687;-78
2023/02/11 04:48:09;;;;;;;48.20;16.37;;;5.50;99.90;;;;;;6216902;22;39247;-78
2023/02/11 04:50:35;;;;;;;46.50;16.37;;;5.60;99.90;;;;;;6243781;22;39899;-77
2023/02/11 04:53:01;;;;;;;50.73;16.23;;;5.60;99.90;;;;;;6218854;22;37041;-77
2023/02/11 04:55:27;;;;;;;47.13;16.03;;;5.60;99.90;;;;;;6217591;22;47391;-77
2023/02/11 04:57:54;;;;;;;52.27;16.33;;;5.60;99.90;;;;;;6217062;22;38187;-77
2023/02/11 05:00:20;;;;;;;50.50;17.50;;;5.60;99.90;;;;;;6241553;22;38028;-78
2023/02/11 05:02:46;;;;;;;58.80;19.20;;;5.70;99.90;;;;;;6217238;22;37032;-78
2023/02/11 05:05:12;;;;;;;58.17;17.63;;;5.70;99.90;;;;;;6244306;22;36296;-77
2023/02/11 05:07:38;;;;;;;50.37;16.60;;;5.70;99.90;;;;;;6245435;22;37437;-78
2023/02/11 05:10:05;;;;;;;48.70;16.53;;;5.70;99.90;;;;;;6216270;22;37100;-77
2023/02/11 05:12:31;;;;;;;45.37;17.40;;;5.70;99.90;;;;;;6217019;22;47557;-78
2023/02/11 05:14:57;;;;;;;45.37;17.10;;;5.80;99.90;;;;;;6218728;22;36883;-78
2023/02/11 05:17:23;;;;;;;58.07;19.80;;;5.80;99.90;;;;;;6215586;22;37937;-77
2023/02/11 05:19:49;;;;;;;51.37;19.50;;;5.80;99.90;;;;;;6244778;22;37409;-77
2023/02/11 05:22:15;;;;;;;60.97;19.27;;;5.90;99.90;;;;;;6217746;22;37374;-77
2023/02/11 05:24:41;;;;;;;64.23;21.67;;;5.80;99.90;;;;;;6220942;22;36045;-77
2023/02/11 05:27:08;;;;;;;62.20;20.27;;;5.80;99.90;;;;;;6216823;22;38116;-77
2023/02/11 05:29:34;;;;;;;58.23;20.90;;;5.80;99.90;;;;;;6243290;22;39323;-78
2023/02/11 05:32:00;;;;;;;61.03;21.40;;;5.90;99.90;;;;;;6218627;22;37389;-77
2023/02/11 05:34:27;;;;;;;60.20;23.90;;;5.90;99.90;;;;;;6217333;22;39847;-76
2023/02/11 05:36:54;;;;;;;58.17;21.57;;;6.00;99.90;;;;;;6244022;22;37551;-77
2023/02/11 05:39:20;;;;;;;64.37;21.40;;;6.00;99.90;;;;;;6243419;22;39547;-77
2023/02/11 05:41:46;;;;;;;55.63;23.70;;;6.00;99.90;;;;;;6218740;22;37018;-76
2023/02/11 05:44:12;;;;;;;54.53;21.63;;;5.90;99.90;;;;;;6244238;22;37394;-76
2023/02/11 05:46:38;;;;;;;65.90;23.30;;;5.80;99.90;;;;;;6243620;22;38908;-77
2023/02/11 05:49:04;;;;;;;64.87;25.30;;;5.70;99.90;;;;;;6242829;22;37246;-76
2023/02/11 05:51:30;;;;;;;59.17;24.00;;;5.70;99.90;;;;;;6219039;22;37682;-76
2023/02/11 05:53:56;;;;;;;51.07;20.70;;;5.50;99.90;;;;;;6217970;22;36464;-76
2023/02/11 05:56:22;;;;;;;55.73;21.00;;;5.50;99.90;;;;;;6220893;22;37805;-75
2023/02/11 05:58:48;;;;;;;59.53;25.20;;;5.50;99.90;;;;;;6246257;22;37488;-77
2023/02/11 06:01:14;;;;;;;52.17;23.77;;;5.60;99.90;;;;;;6218115;22;37082;-77
2023/02/11 06:03:41;;;;;;;61.47;25.03;;;5.60;99.90;;;;;;6246449;22;35965;-76
2023/02/11 06:06:11;;;;;;;68.90;26.10;;;5.60;99.90;;;;;;6250260;22;39017;-78
2023/02/11 06:08:37;;;;;;;59.87;25.40;;;5.70;99.90;;;;;;6234877;22;38383;-76
2023/02/11 06:11:03;;;;;;;54.60;25.07;;;5.70;99.90;;;;;;6218691;22;37261;-76
2023/02/11 06:13:29;;;;;;;59.50;26.10;;;5.70;99.90;;;;;;6218963;22;37392;-77
2023/02/11 06:16:01;;;;;;;55.03;26.87;;;5.70;99.90;;;;;;6245452;22;38412;-76
2023/02/11 06:18:28;;;;;;;55.80;24.17;;;5.70;99.90;;;;;;6218848;22;46752;-77
2023/02/11 06:20:55;;;;;;;61.60;26.63;;;5.60;99.90;;;;;;6246361;22;38541;-76
2023/02/11 06:23:21;;;;;;;62.47;27.97;;;5.70;99.90;;;;;;6220893;22;36762;-77
2023/02/11 06:25:49;;;;;;;67.10;29.80;;;5.60;99.90;;;;;;6247740;22;38791;-76
2023/02/11 06:28:15;;;;;;;63.50;27.40;;;5.60;99.90;;;;;;6220891;22;38696;-76
2023/02/11 06:30:41;;;;;;;77.60;32.00;;;5.50;99.90;;;;;;6246856;22;38476;-76
2023/02/11 06:33:07;;;;;;;78.20;30.70;;;5.40;99.90;;;;;;6249683;22;38137;-77
2023/02/11 06:35:34;;;;;;;54.90;24.80;;;5.30;99.90;;;;;;6223351;22;39050;-77
2023/02/11 06:38:00;;;;;;;55.70;28.00;;;5.30;99.90;;;;;;6225013;22;37272;-77
2023/02/11 06:40:26;;;;;;;71.80;28.67;;;5.30;99.90;;;;;;6249744;22;47950;-77
2023/02/11 06:42:52;;;;;;;67.80;30.27;;;5.30;99.90;;;;;;6246168;22;36432;-77
2023/02/11 06:45:19;;;;;;;66.10;28.87;;;5.40;99.90;;;;;;6220492;22;40856;-77
2023/02/11 06:47:45;;;;;;;61.10;27.57;;;5.40;99.90;;;;;;6222759;22;37522;-77
2023/02/11 06:50:13;;;;;;;71.67;28.90;;;5.40;99.90;;;;;;6245899;22;39272;-78
2023/02/11 06:52:39;;;;;;;63.17;26.77;;;5.40;99.90;;;;;;6219486;22;36286;-76
2023/02/11 06:55:06;;;;;;;68.50;29.83;;;5.40;99.90;;;;;;6212576;22;38757;-77
2023/02/11 06:57:32;;;;;;;64.73;27.73;;;5.40;99.90;;;;;;6246383;22;37049;-77
2023/02/11 06:59:58;;;;;;;61.67;25.90;;;5.40;99.90;;;;;;6218831;22;36812;-77
2023/02/11 07:02:24;;;;;;;59.90;27.40;;;5.30;99.90;;;;;;6220423;22;36366;-77
2023/02/11 07:04:50;;;;;;;62.67;27.13;;;5.20;99.90;;;;;;6221140;22;37305;-77
2023/02/11 07:07:16;;;;;;;74.20;30.03;;;5.20;99.90;;;;;;6246028;22;37761;-77
2023/02/11 07:09:42;;;;;;;69.67;30.47;;;5.20;99.90;;;;;;6224041;22;37848;-78
2023/02/11 07:12:09;;;;;;;66.77;28.93;;;5.30;99.90;;;;;;6244917;22;36216;-77
2023/02/11 07:14:36;;;;;;;64.33;29.40;;;5.30;99.90;;;;;;6247704;22;39930;-77
2023/02/11 07:17:03;;;;;;;69.40;29.63;;;5.40;99.90;;;;;;6178287;23;38630;-78
2023/02/11 07:19:32;;;;;;;78.57;33.97;;;5.50;99.90;;;;;;6239717;22;39837;-80
2023/02/11 07:21:59;;;;;;;78.70;32.27;;;5.50;99.90;;;;;;6237447;22;37613;-77
2023/02/11 07:24:25;;;;;;;82.73;35.70;;;5.50;99.90;;;;;;6225505;22;38027;-77
2023/02/11 07:26:52;;;;;;;83.80;34.67;;;5.60;99.90;;;;;;6227567;22;37091;-78
2023/02/11 07:29:18;;;;;;;79.60;34.00;;;5.50;99.90;;;;;;6248939;22;38975;-76
2023/02/11 07:31:44;;;;;;;61.63;31.23;;;5.50;99.90;;;;;;6247767;22;36230;-75
2023/02/11 07:34:10;;;;;;;78.23;34.33;;;5.50;99.90;;;;;;6221581;22;37826;-75
2023/02/11 07:36:36;;;;;;;75.50;32.17;;;5.50;99.90;;;;;;6252836;22;39488;-76
2023/02/11 07:39:03;;;;;;;57.23;28.83;;;5.60;99.90;;;;;;6251944;22;38397;-76
2023/02/11 07:41:30;;;;;;;61.87;30.07;;;5.60;99.90;;;;;;6251202;22;38791;-76
2023/02/11 07:43:56;;;;;;;87.53;35.03;;;5.50;99.90;;;;;;6249312;22;39018;-76
2023/02/11 07:46:25;;;;;;;75.60;31.17;;;5.40;99.90;;;;;;6228149;22;37322;-77
2023/02/11 07:48:52;;;;;;;90.33;35.83;;;5.40;99.90;;;;;;6245953;22;38008;-78
2023/02/11 07:51:19;;;;;;;65.60;30.27;;;5.50;99.90;;;;;;6211526;22;37299;-78
2023/02/11 07:53:46;;;;;;;78.77;33.00;;;5.60;99.90;;;;;;6243744;22;38829;-77
2023/02/11 07:56:14;;;;;;;87.40;36.00;;;5.50;99.90;;;;;;6217176;22;37361;-77
2023/02/11 07:58:43;;;;;;;76.50;34.40;;;5.50;99.90;;;;;;6246295;22;38402;-77
2023/02/11 08:01:13;;;;;;;59.93;32.17;;;5.50;99.90;;;;;;6217172;22;37172;-77
2023/02/11 08:03:43;;;;;;;84.20;37.77;;;5.60;99.90;;;;;;6219219;22;37648;-77
2023/02/11 08:06:17;;;;;;;63.03;33.10;;;5.60;99.90;;;;;;6217155;22;38266;-77
2023/02/11 08:08:43;;;;;;;86.70;37.33;;;5.70;99.90;;;;;;6243874;22;38034;-77
2023/02/11 08:11:12;;;;;;;88.97;39.20;;;5.80;99.90;;;;;;6218007;22;37035;-77
2023/02/11 08:13:39;;;;;;;82.07;39.93;;;5.90;99.90;;;;;;6220474;22;37974;-77
2023/02/11 08:16:05;;;;;;;67.10;36.73;;;6.10;99.90;;;;;;6245673;22;38759;-77
2023/02/11 08:18:33;;;;;;;73.37;36.07;;;6.20;99.90;;;;;;6222698;22;38552;-76
2023/02/11 08:21:07;;;;;;;78.57;37.70;;;6.30;99.90;;;;;;6220892;22;36860;-75
2023/02/11 08:23:35;;;;;;;85.90;38.33;;;6.40;99.90;;;;;;6246024;22;47271;-76
2023/02/11 08:26:03;;;;;;;76.10;37.17;;;6.50;99.90;;;;;;6247336;22;38622;-77
2023/02/11 08:28:29;;;;;;;80.33;38.73;;;6.50;99.90;;;;;;6222323;22;47126;-75
2023/02/11 08:30:55;;;;;;;82.87;37.30;;;6.60;99.90;;;;;;6247146;22;37136;-75
2023/02/11 08:33:21;;;;;;;81.23;38.60;;;6.60;99.90;;;;;;6216362;22;38029;-73
2023/02/11 08:35:47;;;;;;;83.60;39.53;;;6.70;99.90;;;;;;6249083;22;39123;-74
2023/02/11 08:38:13;;;;;;;90.20;38.30;;;6.70;99.90;;;;;;6215956;22;37475;-74
2023/02/11 08:40:39;;;;;;;97.33;40.97;;;6.70;99.90;;;;;;6240782;22;37271;-74
2023/02/11 08:43:05;;;;;;;80.87;38.93;;;6.80;99.90;;;;;;6239683;22;38491;-74
2023/02/11 08:45:31;;;;;;;77.03;38.00;;;6.80;99.90;;;;;;6214076;22;38249;-74
2023/02/11 08:47:58;;;;;;;107.53;43.70;;;6.90;99.90;;;;;;6238352;22;38096;-75
2023/02/11 08:50:25;;;;;;;72.23;36.70;;;7.00;99.90;;;;;;6239690;22;38411;-75
2023/02/11 08:52:51;;;;;;;89.70;38.10;;;7.00;99.90;;;;;;6213468;22;38761;-74
2023/02/11 08:55:18;;;;;;;71.13;34.90;;;7.10;99.90;;;;;;6225099;22;38955;-74
2023/02/11 08:57:44;;;;;;;63.77;33.83;;;7.10;99.90;;;;;;6241057;22;38186;-76
2023/02/11 09:00:14;;;;;;;88.23;39.50;;;7.20;99.90;;;;;;6211530;22;36425;-77
2023/02/11 09:02:40;;;;;;;74.50;36.00;;;7.30;99.90;;;;;;6213412;22;47301;-77
2023/02/11 09:05:07;;;;;;;75.50;35.63;;;7.40;99.90;;;;;;6239845;22;37772;-76
2023/02/11 09:07:33;;;;;;;100.47;42.57;;;7.50;99.90;;;;;;6242550;22;47531;-76
2023/02/11 09:10:00;;;;;;;80.47;39.30;;;7.50;99.90;;;;;;6212818;22;36644;-76
2023/02/11 09:12:26;;;;;;;86.73;39.73;;;7.60;99.90;;;;;;6212613;22;37646;-76
2023/02/11 09:14:52;;;;;;;104.20;41.10;;;7.70;99.90;;;;;;6215990;22;38557;-77
2023/02/11 09:17:18;;;;;;;79.83;36.43;;;7.80;99.90;;;;;;6214158;22;37952;-75
2023/02/11 09:19:44;;;;;;;75.07;36.23;;;7.90;99.90;;;;;;6242923;22;38155;-76
2023/02/11 09:22:10;;;;;;;74.93;35.77;;;8.10;99.90;;;;;;6241753;22;38470;-76
2023/02/11 09:24:36;;;;;;;67.50;33.23;;;8.10;99.90;;;;;;6244421;22;38601;-76
2023/02/11 09:27:02;;;;;;;74.40;36.73;;;8.10;99.90;;;;;;6243004;22;38165;-76
2023/02/11 09:29:28;;;;;;;76.63;36.40;;;8.10;99.90;;;;;;6214964;22;37005;-76
2023/02/11 09:31:54;;;;;;;59.33;32.23;;;8.10;99.90;;;;;;6217422;22;37563;-77
2023/02/11 09:34:20;;;;;;;68.80;33.37;;;8.10;99.90;;;;;;6240925;22;37915;-76
2023/02/11 09:36:46;;;;;;;56.27;31.47;;;8.20;99.90;;;;;;6243785;22;39192;-76
2023/02/11 09:39:16;;;;;;;75.30;35.40;;;8.30;99.90;;;;;;6216366;22;36247;-76
2023/02/11 09:41:43;;;;;;;66.83;33.23;;;8.40;99.90;;;;;;6244925;22;38965;-77
2023/02/11 09:44:18;;;;;;;68.80;33.93;;;8.50;99.90;;;;;;6216704;22;38791;-76
2023/02/11 09:46:52;;;;;;;55.27;30.90;;;8.40;99.90;;;;;;6217542;22;37097;-77
2023/02/11 09:49:25;;;;;;;63.10;32.33;;;8.40;99.90;;;;;;6215761;22;36882;-76
2023/02/11 09:52:01;;;;;;;56.20;29.73;;;8.40;99.90;;;;;;6218110;22;37597;-75
2023/02/11 09:54:51;;;;;;;59.63;30.93;;;8.40;99.90;;;;;;6215739;22;47501;-74
2023/02/11 09:57:17;;;;;;;59.63;31.20;;;8.50;99.90;;;;;;6251622;22;38055;-77
2023/02/11 09:59:43;;;;;;;59.00;30.03;;;8.70;99.90;;;;;;6217829;22;36256;-76
2023/02/11 10:02:46;;;;;;;54.77;31.20;;;8.70;99.90;;;;;;6246217;22;38940;-77
2023/02/11 10:05:19;;;;;;;59.60;30.48;;;8.70;99.90;;;;;;6213966;22;39518;-78
2023/02/11 10:08:08;;;;;;;53.90;29.83;;;8.90;99.90;;;;;;6248479;22;39388;-79
2023/02/11 10:10:46;;;;;;;53.43;30.40;;;8.90;99.90;;;;;;6217464;22;47306;-78
2023/02/11 10:13:12;;;;;;;62.33;32.17;;;9.00;99.90;;;;;;6250641;22;39297;-78
2023/02/11 10:15:50;;;;;;;54.83;30.27;;;9.20;99.90;;;;;;6223505;22;37243;-78
2023/02/11 10:18:31;;;;;;;50.40;27.90;;;9.30;99.90;;;;;;6223626;22;38217;-79
2023/02/11 10:21:09;;;;;;;53.97;26.83;;;9.30;99.90;;;;;;6226854;22;37487;-79
2023/02/11 10:23:48;;;;;;;45.40;25.37;;;9.20;99.90;;;;;;6252972;22;46795;-79
2023/02/11 10:26:16;;;;;;;47.27;25.43;;;9.20;99.90;;;;;;6227252;22;38381;-80
2023/02/11 10:28:46;;;;;;;44.63;25.57;;;9.40;99.90;;;;;;6232682;22;37049;-80
2023/02/11 10:31:21;;;;;;;47.10;26.57;;;9.50;99.90;;;;;;6256406;22;38060;-79
2023/02/11 10:33:53;;;;;;;52.23;31.33;;;9.50;99.90;;;;;;6230829;22;37652;-80
2023/02/11 10:36:24;;;;;;;53.42;30.83;;;9.60;99.90;;;;;;6226417;22;37423;-79
2023/02/11 10:38:51;;;;;;;41.63;26.40;;;9.60;99.90;;;;;;6232284;22;37672;-79
2023/02/11 10:41:21;;;;;;;52.80;26.90;;;9.70;99.90;;;;;;6230356;22;36368;-80
2023/02/11 10:43:50;;;;;;;47.40;22.87;;;9.70;99.90;;;;;;6262285;22;38578;-81
2023/02/11 10:46:21;;;;;;;41.73;22.90;;;9.70;99.90;;;;;;6259394;22;38874;-78
2023/02/11 10:48:52;;;;;;;37.33;23.10;;;9.70;99.90;;;;;;6233185;22;37261;-80
2023/02/11 10:51:30;;;;;;;34.50;21.47;;;9.80;99.90;;;;;;6205692;22;36514;-77
2023/02/11 10:54:07;;;;;;;35.07;21.43;;;9.90;99.90;;;;;;6242026;22;39032;-76
2023/02/11 10:56:41;;;;;;;33.23;20.80;;;10.00;99.90;;;;;;6242209;22;48963;-75
2023/02/11 10:59:14;;;;;;;33.05;20.48;;;10.10;99.90;;;;;;6210081;22;36865;-78
2023/02/11 11:01:44;;;;;;;33.73;20.50;;;10.20;99.90;;;;;;6244976;22;37522;-77
2023/02/11 11:04:28;;;;;;;35.40;19.67;;;10.30;99.90;;;;;;6244177;22;39375;-78
2023/02/11 11:06:55;;;;;;;32.83;20.23;;;10.50;99.90;;;;;;6226410;22;38131;-74
2023/02/11 11:09:29;;;;;;;29.70;17.15;;;10.60;99.90;;;;;;6242136;22;38121;-74
2023/02/11 11:11:56;;;;;;;34.90;18.25;;;10.70;99.90;;;;;;6240488;22;37423;-76
2023/02/11 11:14:27;;;;;;;25.63;16.27;;;10.80;99.90;;;;;;6242258;22;38905;-76
2023/02/11 11:16:54;;;;;;;25.95;16.80;;;10.70;99.90;;;;;;6243039;22;38371;-76
2023/02/11 11:19:23;;;;;;;27.45;16.95;;;10.70;99.90;;;;;;6242336;22;38371;-76
2023/02/11 11:21:50;;;;;;;23.10;15.68;;;10.60;99.90;;;;;;6214348;22;36615;-76
2023/02/11 11:24:30;;;;;;;23.90;15.10;;;10.60;99.90;;;;;;6238936;22;39394;-76
2023/02/11 11:27:00;;;;;;;24.77;16.08;;;10.60;99.90;;;;;;6245988;22;38172;-76
2023/02/11 11:29:47;;;;;;;30.75;16.52;;;10.60;99.90;;;;;;6215486;22;46817;-79
2023/02/11 11:32:22;;;;;;;33.50;18.15;;;10.70;99.90;;;;;;6215153;22;36744;-77
2023/02/11 11:34:52;;;;;;;33.40;19.00;;;10.70;99.90;;;;;;6216405;22;37868;-76
2023/02/11 11:37:25;;;;;;;28.48;16.77;;;10.60;99.90;;;;;;6244173;22;38973;-76
2023/02/11 11:43:13;;;;;;;34.25;17.27;;;10.60;99.90;;;;;;6196631;22;48748;-76
2023/02/11 11:45:55;;;;;;;25.85;15.60;;;10.60;99.90;;;;;;6241959;22;38693;-76
2023/02/11 11:48:33;;;;;;;26.27;16.23;;;10.70;99.90;;;;;;6213064;22;38803;-76
2023/02/11 11:51:03;;;;;;;28.75;15.52;;;10.70;99.90;;;;;;6211322;22;37443;-76
2023/02/11 11:54:07;;;;;;;26.30;14.85;;;10.80;99.90;;;;;;6238165;22;48370;-76
2023/02/11 11:56:37;;;;;;;27.85;15.30;;;10.90;99.90;;;;;;6212390;22;47098;-79
2023/02/11 11:59:13;;;;;;;25.77;14.98;;;10.90;99.90;;;;;;6246002;22;38319;-78
2023/02/11 12:01:39;;;;;;;24.73;15.00;;;11.00;99.90;;;;;;6221187;22;37067;-75
2023/02/11 12:04:18;;;;;;;26.48;15.35;;;11.00;99.90;;;;;;6215540;22;36118;-79
2023/02/11 12:06:47;;;;;;;23.55;14.43;;;11.10;99.90;;;;;;6242278;22;39657;-80
2023/02/11 12:09:22;;;;;;;25.50;14.38;;;11.20;99.90;;;;;;6212165;22;38494;-77
2023/02/11 12:12:19;;;;;;;25.88;15.57;;;11.20;99.90;;;;;;6240734;22;38109;-76
2023/02/11 12:15:06;;;;;;;29.25;14.52;;;11.20;99.90;;;;;;6236386;22;48889;-78
2023/02/11 12:18:08;;;;;;;27.52;13.95;;;11.10;99.90;;;;;;6241226;22;48333;-76
2023/02/11 12:21:03;;;;;;;21.23;13.98;;;11.10;99.90;;;;;;6238379;22;48942;-80
2023/02/11 12:23:54;;;;;;;22.48;13.77;;;11.10;99.90;;;;;;6210073;22;46968;-78
2023/02/11 12:26:45;;;;;;;21.80;14.02;;;11.10;99.90;;;;;;6213448;22;37921;-78
2023/02/11 12:29:24;;;;;;;24.23;14.80;;;11.00;99.90;;;;;;6238186;22;39779;-79
2023/02/11 12:32:19;;;;;;;23.13;14.45;;;11.10;99.90;;;;;;6249112;22;38100;-81
2023/02/11 12:35:08;;;;;;;24.50;14.57;;;11.10;99.90;;;;;;6235024;22;48240;-80
2023/02/11 12:38:07;;;;;;;24.80;14.88;;;11.20;99.90;;;;;;6243737;22;48545;-75
2023/02/11 12:40:52;;;;;;;24.65;13.40;;;11.30;99.90;;;;;;6108939;22;49109;-77
2023/02/11 12:43:27;;;;;;;26.25;14.93;;;11.20;99.90;;;;;;6239932;22;38791;-78
2023/02/11 12:46:27;;;;;;;23.55;14.60;;;11.20;99.90;;;;;;6242503;22;38189;-79
2023/02/11 12:49:05;;;;;;;23.80;13.40;;;11.30;99.90;;;;;;6245808;22;47252;-78
2023/02/11 12:51:43;;;;;;;23.80;14.32;;;11.30;99.90;;;;;;6201953;22;47427;-78
2023/02/11 13:05:37;;;;;;;;;;;11.50;99.90;;;;;;6223542;22;19919;-79
2023/02/11 13:08:18;;;;;;;21.33;12.55;;;11.50;99.90;;;;;;6212919;22;38463;-78
2023/02/11 13:10:52;;;;;;;23.50;13.77;;;11.50;99.90;;;;;;6217370;22;35740;-78
2023/02/11 13:13:24;;;;;;;26.67;14.23;;;11.50;99.90;;;;;;6215851;22;38700;-78
2023/02/11 13:16:04;;;;;;;25.75;14.32;;;11.70;99.90;;;;;;6215716;22;37526;-78
2023/02/11 13:18:36;;;;;;;20.20;14.23;;;11.60;99.90;;;;;;6226517;22;47196;-80
2023/02/11 13:21:15;;;;;;;23.15;14.60;;;11.50;99.90;;;;;;6237705;22;36498;-80
2023/02/11 13:24:13;;;;;;;24.10;14.05;;;11.50;99.90;;;;;;6270872;22;39613;-80